Auburn, Iowa
Current Conditions -  °F | °C
As of 5:55 PM on Wednesday 22 Oct 2014 (Local Time) from KCIN Reporting Station
Clear Clear  
Wind Chill: 64°   Ceiling: Unl
Heat Index: 64°   Visibility: 9mi
Dew Point: 48°   Wind: 15mph
Humidity: 56%   Direction: 150°SSE
Pressure: 30.04"   Gusts: 21mph
Location:  42.25°N, 94.88°W
Report Text: KCIN 222255Z AUTO 15013G18KT 9SM CLR 18/09 A3004 RMK AO2
Loading
Personal Weather Stations






























Interactive Weather Map
Tropical Storm Tracking
New forecast layout! Learn more

10-Day Weather Forecast

Advertisements
Track Severe Weather on mobile